createdAt,value
2022-09-23T03:38:23.297Z,7.94
2022-09-23T04:38:53.439Z,7.63
2022-09-23T04:41:22.930Z,7.64
2022-09-23T04:43:58.409Z,7.58
2022-09-23T04:46:27.877Z,7.55
2022-09-23T04:48:54.811Z,7.59
2022-09-23T04:51:28.271Z,7.59
2022-09-23T04:54:00.707Z,7.61
2022-09-23T04:56:33.162Z,7.61
2022-09-23T04:59:03.804Z,7.54
2022-09-23T05:01:34.376Z,7.59
2022-09-23T05:04:10.922Z,7.71
2022-09-23T05:06:42.155Z,7.65
2022-09-23T05:09:17.524Z,7.72
2022-09-23T05:11:50.782Z,7.75
2022-09-23T05:14:17.913Z,7.80
2022-09-23T05:16:51.929Z,7.84
2022-09-23T05:19:53.999Z,7.89
2022-09-23T05:22:23.634Z,8.00
2022-09-23T05:25:00.271Z,8.04
2022-09-23T05:27:35.054Z,8.09
2022-09-23T05:30:26.738Z,8.42
2022-09-23T05:33:36.284Z,8.75
2022-09-23T05:36:14.345Z,9.38
2022-09-23T05:38:46.449Z,9.72
2022-09-23T05:41:32.775Z,10.04
2022-09-23T05:44:02.637Z,10.35
2022-09-23T05:46:33.282Z,10.73
2022-09-23T05:49:08.504Z,11.23
2022-09-23T05:52:33.046Z,12.04
2022-09-23T05:55:33.197Z,12.37
2022-09-23T05:59:00.563Z,13.04
2022-09-23T06:02:00.490Z,13.50
2022-09-23T06:04:27.788Z,13.88
2022-09-23T06:06:54.563Z,14.48
2022-09-23T06:09:21.414Z,14.68
2022-09-23T06:11:48.343Z,14.88
2022-09-23T06:14:16.697Z,15.12
2022-09-23T06:16:43.808Z,15.75
2022-09-23T06:19:11.011Z,16.12
2022-09-23T06:21:39.904Z,15.94
2022-09-23T06:24:08.340Z,16.44
2022-09-23T06:26:36.864Z,17.08
2022-09-23T06:29:09.420Z,17.42
2022-09-23T06:31:41.221Z,17.96
2022-09-23T06:34:46.597Z,18.71
2022-09-23T06:37:49.075Z,19.21
2022-09-23T06:40:17.272Z,18.88
2022-09-23T06:42:47.114Z,18.66
2022-09-23T06:45:26.392Z,18.71
2022-09-23T06:47:56.153Z,18.81
2022-09-23T06:53:59.340Z,19.27
2022-09-23T06:56:41.678Z,19.31
2022-09-23T06:59:23.240Z,19.18
2022-09-23T07:01:53.789Z,19.64
2022-09-23T07:04:24.982Z,20.42
2022-09-23T07:06:54.517Z,21.20
2022-09-23T07:09:21.414Z,21.34
2022-09-23T07:11:48.256Z,21.44
2022-09-23T07:14:15.791Z,21.96
2022-09-23T07:16:43.632Z,22.28
2022-09-23T07:19:18.130Z,22.68
2022-09-23T07:21:53.972Z,22.83
2022-09-23T07:24:40.756Z,22.91
2022-09-23T07:27:21.961Z,22.66
2022-09-23T07:29:56.487Z,22.78
2022-09-23T07:32:48.107Z,22.18
2022-09-23T07:36:03.104Z,21.64
2022-09-23T07:38:50.723Z,21.42
2022-09-23T07:41:24.093Z,21.36
2022-09-23T07:43:53.402Z,21.23
2022-09-23T07:46:29.014Z,21.04
2022-09-23T07:48:57.406Z,20.94
2022-09-23T07:51:29.053Z,20.77
2022-09-23T07:54:06.363Z,19.82
2022-09-23T07:56:54.227Z,19.70
2022-09-23T07:59:45.958Z,19.49
2022-09-23T08:02:13.356Z,19.43
2022-09-23T08:04:53.127Z,19.30
2022-09-23T08:07:28.424Z,19.21
2022-09-23T08:10:06.362Z,16.66
2022-09-23T08:12:47.977Z,15.00
2022-09-23T08:15:17.665Z,15.08
2022-09-23T08:17:44.693Z,14.56
2022-09-23T08:20:11.871Z,14.71
2022-09-23T08:22:38.860Z,14.67
2022-09-23T08:25:10.118Z,15.00
2022-09-23T08:27:37.215Z,15.03
2022-09-23T08:30:05.334Z,15.34
2022-09-23T08:32:32.205Z,15.63
2022-09-23T08:35:01.600Z,15.68
2022-09-23T08:37:28.496Z,15.34
2022-09-23T08:39:55.533Z,15.26
2022-09-23T08:42:33.444Z,15.00
2022-09-23T08:45:10.075Z,15.09
2022-09-23T08:47:55.137Z,15.10
2022-09-23T08:50:39.798Z,14.99
2022-09-23T08:53:21.200Z,15.51
2022-09-23T08:55:54.900Z,16.15
2022-09-23T08:58:43.764Z,15.38
2022-09-23T09:01:26.209Z,15.79
2022-09-23T09:03:57.508Z,15.73
2022-09-23T09:06:41.879Z,16.19
2022-09-23T09:09:26.908Z,16.23
2022-09-23T09:12:02.919Z,16.48
2022-09-23T09:14:43.149Z,16.80
2022-09-23T09:17:19.238Z,16.52
2022-09-23T09:19:58.233Z,17.14
2022-09-23T09:22:47.055Z,18.45
2022-09-23T09:25:43.597Z,18.70
2022-09-23T09:28:18.730Z,18.71
2022-09-23T09:30:56.382Z,19.31
2022-09-23T09:33:31.537Z,20.45
2022-09-23T09:36:23.242Z,19.14
2022-09-23T09:38:50.394Z,19.03
2022-09-23T09:41:18.739Z,20.20
2022-09-23T09:43:47.538Z,19.99
2022-09-23T09:46:36.504Z,21.53
2022-09-23T09:49:13.962Z,19.97
2022-09-23T09:51:41.030Z,21.62
2022-09-23T09:54:22.672Z,21.55
2022-09-23T09:56:50.717Z,19.69
2022-09-23T09:59:27.089Z,20.92
2022-09-23T10:02:21.963Z,22.49
2022-09-23T10:04:59.764Z,24.08
2022-09-23T10:07:31.227Z,24.88
2022-09-23T10:10:28.793Z,23.93
2022-09-23T10:13:15.429Z,22.68
2022-09-23T10:15:48.340Z,21.71
2022-09-23T10:18:53.500Z,22.53
2022-09-23T10:22:02.994Z,23.62
2022-09-23T10:25:13.805Z,22.21
2022-09-23T11:18:37.898Z,26.53
2022-09-23T11:21:33.759Z,27.37
2022-09-23T11:50:48.432Z,28.08
2022-09-23T15:44:49.598Z,20.35
2022-09-23T15:47:53.244Z,20.46
2022-09-23T15:50:29.731Z,20.37
2022-09-23T15:52:59.572Z,20.29
2022-09-23T15:55:38.593Z,20.24
2022-09-23T16:04:13.020Z,20.11
2022-09-23T16:11:03.775Z,19.99
2022-09-23T16:13:45.522Z,20.02
2022-09-23T16:16:14.156Z,19.94
2022-09-23T16:18:47.451Z,19.92
2022-09-23T16:21:24.600Z,19.83
2022-09-23T16:23:53.230Z,19.84
2022-09-23T16:26:25.558Z,19.78
2022-09-23T16:28:57.528Z,19.70
2022-09-23T16:31:30.898Z,19.63
2022-09-23T16:34:03.289Z,19.57
2022-09-23T16:36:38.845Z,19.53
2022-09-23T16:39:19.027Z,19.53
2022-09-23T16:41:51.700Z,19.48
2022-09-23T16:44:20.937Z,19.46
2022-09-23T16:46:47.942Z,19.42
2022-09-23T16:49:20.676Z,19.39
2022-09-23T16:53:21.911Z,19.32
2022-09-23T16:59:53.272Z,19.13
2022-09-23T17:02:25.319Z,18.99
2022-09-23T17:04:53.927Z,18.70
2022-09-23T17:07:26.023Z,18.45
2022-09-23T17:09:55.167Z,18.41
2022-09-23T17:12:45.337Z,18.27
2022-09-23T17:15:27.301Z,18.05
2022-09-23T17:17:54.337Z,17.76
2022-09-23T17:20:27.016Z,17.59
2022-09-23T17:22:58.100Z,17.44
2022-09-23T17:25:38.557Z,17.34
2022-09-23T17:28:20.311Z,17.31
2022-09-23T17:31:09.436Z,17.30
2022-09-23T17:36:42.488Z,17.35
2022-09-23T17:39:09.510Z,17.27
2022-09-23T17:42:52.909Z,17.19
2022-09-23T17:45:43.103Z,16.68
2022-09-23T17:48:17.574Z,16.48
2022-09-23T17:50:54.421Z,16.32
2022-09-23T17:53:21.712Z,16.33
2022-09-23T17:55:55.986Z,16.30
2022-09-23T17:58:26.068Z,16.13
2022-09-23T18:00:54.828Z,15.88
2022-09-23T18:03:26.634Z,15.77
2022-09-23T18:06:05.287Z,15.78
2022-09-23T18:08:47.090Z,15.83
2022-09-23T18:11:47.700Z,15.75
2022-09-23T18:14:55.787Z,15.57
2022-09-23T18:17:27.534Z,15.49
2022-09-23T18:26:38.364Z,15.53
2022-09-23T18:29:35.860Z,15.42
2022-09-23T18:32:34.300Z,15.30
2022-09-23T18:35:15.715Z,15.23
2022-09-23T18:38:06.588Z,15.30
2022-09-23T18:40:33.923Z,15.45
2022-09-23T18:43:01.555Z,15.49
2022-09-23T18:45:28.825Z,15.43
2022-09-23T18:48:13.044Z,15.41
2022-09-23T18:52:02.584Z,15.32
2022-09-23T18:54:56.563Z,15.19
2022-09-23T18:57:33.575Z,15.03
2022-09-23T19:01:06.714Z,15.03
2022-09-23T19:03:45.639Z,15.06
2022-09-23T19:06:25.623Z,15.19
2022-09-23T19:09:27.550Z,15.21
2022-09-23T19:12:46.198Z,14.99
2022-09-23T19:16:38.139Z,15.09
2022-09-23T19:19:08.068Z,15.23
2022-09-23T19:21:44.994Z,15.36
2022-09-23T19:24:16.307Z,15.42
2022-09-23T19:26:44.180Z,15.46
2022-09-23T19:29:15.708Z,15.46
2022-09-23T19:35:12.599Z,14.18
2022-09-23T19:37:54.432Z,14.28
2022-09-23T19:41:18.328Z,14.28
2022-09-23T19:48:27.110Z,14.68
2022-09-23T19:51:40.133Z,14.56
2022-09-23T19:54:10.544Z,14.67
2022-09-23T19:56:41.423Z,14.80
2022-09-23T19:59:12.424Z,14.90
2022-09-23T20:01:44.858Z,14.60
2022-09-23T20:04:13.742Z,14.76
2022-09-23T20:06:43.344Z,14.83
2022-09-23T20:09:14.129Z,14.57
2022-09-23T20:11:41.222Z,14.50
2022-09-23T20:14:11.624Z,14.43
2022-09-23T20:16:41.793Z,14.44
2022-09-23T20:19:12.877Z,14.18
2022-09-23T20:21:46.169Z,14.16
2022-09-23T20:24:13.436Z,14.06
2022-09-23T20:26:40.560Z,14.23
2022-09-23T20:29:07.593Z,14.29
2022-09-23T20:31:34.669Z,14.40
2022-09-23T20:34:02.578Z,14.52
2022-09-23T20:36:31.366Z,14.62
2022-09-23T20:39:01.126Z,14.74
2022-09-23T20:41:29.775Z,14.77
2022-09-23T20:43:58.218Z,14.85
2022-09-23T20:46:25.477Z,14.88
2022-09-23T20:48:53.000Z,14.58
2022-09-23T20:51:20.752Z,14.45
2022-09-23T20:53:50.883Z,14.33
2022-09-23T20:56:18.623Z,14.26
2022-09-23T20:58:46.327Z,14.40
2022-09-23T21:01:13.344Z,14.50
2022-09-23T21:03:44.015Z,14.54
2022-09-23T21:06:12.887Z,14.53
2022-09-23T21:08:41.115Z,14.09
2022-09-23T21:11:12.588Z,13.95
2022-09-23T21:13:39.495Z,14.09
2022-09-23T21:16:10.409Z,14.14
2022-09-23T21:18:38.607Z,14.09
2022-09-23T21:21:06.576Z,14.01
2022-09-23T21:23:36.941Z,13.82
2022-09-23T21:26:06.395Z,13.70
2022-09-23T21:28:38.611Z,13.71
2022-09-23T21:31:10.206Z,13.77
2022-09-23T21:33:38.011Z,13.88
2022-09-23T21:36:07.349Z,13.98
2022-09-23T21:38:35.238Z,13.83
2022-09-23T21:41:06.133Z,13.87
2022-09-23T21:43:37.803Z,13.85
2022-09-23T21:46:12.596Z,13.95
2022-09-23T21:48:42.735Z,13.97
2022-09-23T21:51:14.955Z,14.03
2022-09-23T21:53:44.607Z,14.04
2022-09-23T21:56:20.502Z,14.15
2022-09-23T21:58:51.139Z,13.97
2022-09-23T22:01:22.233Z,13.90
2022-09-23T22:03:51.837Z,13.95
2022-09-23T22:06:22.621Z,13.98
2022-09-23T22:08:53.971Z,14.00
2022-09-23T22:11:23.963Z,14.05
2022-09-23T22:13:52.151Z,14.06
2022-09-23T22:16:18.969Z,14.04
2022-09-23T22:18:45.996Z,14.00
2022-09-23T22:21:12.707Z,13.99
2022-09-23T22:23:39.838Z,14.00
2022-09-23T22:26:06.769Z,13.65
2022-09-23T22:28:33.705Z,13.43
2022-09-23T22:31:02.156Z,13.49
2022-09-23T22:33:28.971Z,13.58
2022-09-23T22:36:01.385Z,13.66
2022-09-23T22:38:28.444Z,13.73
2022-09-23T22:40:55.419Z,13.80
2022-09-23T22:43:25.609Z,13.81
2022-09-23T22:45:52.517Z,13.85
2022-09-23T22:48:20.702Z,13.75
2022-09-23T22:50:47.451Z,13.60
2022-09-23T22:53:14.170Z,13.57
2022-09-23T22:55:41.005Z,13.57
2022-09-23T22:58:30.845Z,13.63
2022-09-23T23:00:56.535Z,13.31
2022-09-23T23:03:25.586Z,13.36
2022-09-23T23:05:52.348Z,13.42
2022-09-23T23:08:19.197Z,13.43
2022-09-23T23:10:46.048Z,13.41
2022-09-23T23:13:13.018Z,13.45
2022-09-23T23:15:40.324Z,13.49
2022-09-23T23:18:07.194Z,13.54
2022-09-23T23:20:35.648Z,13.53
2022-09-23T23:23:02.513Z,13.54
2022-09-23T23:25:29.531Z,13.53
2022-09-23T23:27:57.224Z,13.54
2022-09-23T23:30:24.098Z,13.42
2022-09-23T23:32:51.717Z,13.45
2022-09-23T23:35:18.674Z,13.50
2022-09-23T23:37:46.725Z,13.56
2022-09-23T23:40:14.047Z,13.58
2022-09-23T23:42:40.843Z,13.60
2022-09-23T23:45:08.901Z,13.54
2022-09-23T23:47:35.728Z,13.22
2022-09-23T23:50:02.939Z,13.25
2022-09-23T23:52:29.667Z,13.18
2022-09-23T23:54:57.762Z,12.95
2022-09-23T23:57:24.496Z,13.06
2022-09-23T23:59:51.431Z,13.18
